Time,TemperatureF,DewpointF,PressureIn,WindDirection,WindDirectionDegrees,WindSpeedMPH,WindSpeedGustMPH,Humidity,HourlyPrecipIn,Conditions,Clouds,dailyrainin,SoftwareType,DateUTC
2013-05-31 00:01:00,77.2,73.4,30.15,ENE,73,0.0,0.0,88,0.00,,,0.00,WUHU216DAVISVP2,2013-05-31 04:01:00,
2013-05-31 00:06:00,77.2,73.4,30.15,ENE,73,0.0,1.0,88,0.00,,,0.00,WUHU216DAVISVP2,2013-05-31 04:06:00,
2013-05-31 00:11:00,77.3,73.5,30.15,ENE,74,0.0,1.0,88,0.00,,,0.00,WUHU216DAVISVP2,2013-05-31 04:11:00,
2013-05-31 00:16:00,77.1,73.3,30.15,NE,42,2.0,3.0,88,0.00,,,0.00,WUHU216DAVISVP2,2013-05-31 04:16:00,
2013-05-31 00:21:00,76.8,72.3,30.15,NE,36,0.0,3.0,86,0.00,,,0.00,WUHU216DAVISVP2,2013-05-31 04:21:00,
2013-05-31 00:26:00,76.5,71.7,30.15,SE,146,0.0,2.0,85,0.00,,,0.00,WUHU216DAVISVP2,2013-05-31 04:26:00,
2013-05-31 00:31:00,76.2,71.4,30.15,SE,138,0.0,1.0,85,0.00,,,0.00,WUHU216DAVISVP2,2013-05-31 04:31:00,
2013-05-31 00:36:00,76.0,70.9,30.15,SE,125,0.0,1.0,84,0.00,,,0.00,WUHU216DAVISVP2,2013-05-31 04:36:00,
2013-05-31 00:41:00,75.9,71.1,30.15,SE,125,0.0,1.0,85,0.00,,,0.00,WUHU216DAVISVP2,2013-05-31 04:41:00,
2013-05-31 00:46:00,75.9,71.4,30.15,SE,125,0.0,0.0,86,0.00,,,0.00,WUHU216DAVISVP2,2013-05-31 04:46:00,
2013-05-31 00:51:00,75.9,71.8,30.15,SE,125,0.0,0.0,87,0.00,,,0.00,WUHU216DAVISVP2,2013-05-31 04:51:00,
2013-05-31 00:56:00,76.0,72.2,30.15,SE,125,0.0,0.0,88,0.00,,,0.00,WUHU216DAVISVP2,2013-05-31 04:56:00,
2013-05-31 01:01:00,76.2,72.7,30.15,SE,124,0.0,1.0,89,0.00,,,0.00,WUHU216DAVISVP2,2013-05-31 05:01:00,
2013-05-31 01:06:00,76.2,72.7,30.15,East,100,0.0,3.0,89,0.00,,,0.00,WUHU216DAVISVP2,2013-05-31 05:06:00,
2013-05-31 01:11:00,76.3,72.8,30.15,East,100,0.0,3.0,89,0.00,,,0.00,WUHU216DAVISVP2,2013-05-31 05:11:00,
2013-05-31 01:16:00,76.4,72.6,30.14,East,100,0.0,1.0,88,0.00,,,0.00,WUHU216DAVISVP2,2013-05-31 05:16:00,
2013-05-31 01:21:00,76.4,72.6,30.14,East,100,0.0,1.0,88,0.00,,,0.00,WUHU216DAVISVP2,2013-05-31 05:21:00,
2013-05-31 01:26:00,76.5,72.7,30.14,East,100,0.0,1.0,88,0.00,,,0.00,WUHU216DAVISVP2,2013-05-31 05:26:00,
2013-05-31 01:31:00,76.5,72.7,30.14,East,100,0.0,1.0,88,0.00,,,0.00,WUHU216DAVISVP2,2013-05-31 05:31:00,
2013-05-31 01:36:00,76.6,72.8,30.14,East,100,0.0,1.0,88,0.00,,,0.00,WUHU216DAVISVP2,2013-05-31 05:36:00,
2013-05-31 01:41:00,76.6,72.8,30.14,NE,34,0.0,1.0,88,0.00,,,0.00,WUHU216DAVISVP2,2013-05-31 05:41:00,
2013-05-31 01:46:00,76.6,72.8,30.14,NE,44,0.0,1.0,88,0.00,,,0.00,WUHU216DAVISVP2,2013-05-31 05:46:00,
2013-05-31 01:51:00,76.7,72.9,30.14,NE,44,0.0,1.0,88,0.00,,,0.00,WUHU216DAVISVP2,2013-05-31 05:51:00,
2013-05-31 01:56:00,76.7,72.9,30.14,NE,44,0.0,2.0,88,0.00,,,0.00,WUHU216DAVISVP2,2013-05-31 05:56:00,
2013-05-31 02:01:00,76.6,72.8,30.13,NE,44,0.0,2.0,88,0.00,,,0.00,WUHU216DAVISVP2,2013-05-31 06:01:00,
2013-05-31 02:06:00,76.6,73.1,30.13,NE,44,0.0,2.0,89,0.00,,,0.00,WUHU216DAVISVP2,2013-05-31 06:06:00,
2013-05-31 02:11:00,76.6,73.1,30.13,NE,46,0.0,2.0,89,0.00,,,0.00,WUHU216DAVISVP2,2013-05-31 06:11:00,
2013-05-31 02:16:00,76.6,73.1,30.12,NE,48,0.0,2.0,89,0.00,,,0.00,WUHU216DAVISVP2,2013-05-31 06:16:00,
2013-05-31 02:21:00,76.6,73.1,30.12,NNE,17,0.0,1.0,89,0.00,,,0.00,WUHU216DAVISVP2,2013-05-31 06:21:00,
2013-05-31 02:26:00,76.6,73.1,30.12,ENE,63,0.0,2.0,89,0.00,,,0.00,WUHU216DAVISVP2,2013-05-31 06:26:00,
2013-05-31 02:31:00,76.6,73.4,30.12,ENE,65,0.0,2.0,90,0.00,,,0.00,WUHU216DAVISVP2,2013-05-31 06:31:00,
2013-05-31 02:36:00,76.6,73.4,30.12,ENE,65,0.0,1.0,90,0.00,,,0.00,WUHU216DAVISVP2,2013-05-31 06:36:00,
2013-05-31 02:41:00,76.6,73.4,30.12,East,82,0.0,2.0,90,0.00,,,0.00,WUHU216DAVISVP2,2013-05-31 06:41:00,
2013-05-31 02:46:00,76.5,73.0,30.12,East,81,0.0,2.0,89,0.00,,,0.00,WUHU216DAVISVP2,2013-05-31 06:46:00,
2013-05-31 02:51:00,76.4,72.9,30.12,East,81,0.0,2.0,89,0.00,,,0.00,WUHU216DAVISVP2,2013-05-31 06:51:00,
2013-05-31 02:56:00,76.5,73.0,30.12,East,81,0.0,2.0,89,0.00,,,0.00,WUHU216DAVISVP2,2013-05-31 06:56:00,
2013-05-31 03:01:00,76.4,72.9,30.12,East,81,1.0,1.0,89,0.00,,,0.00,WUHU216DAVISVP2,2013-05-31 07:01:00,
2013-05-31 03:06:00,76.5,72.7,30.12,East,94,0.0,2.0,88,0.00,,,0.00,WUHU216DAVISVP2,2013-05-31 07:06:00,
2013-05-31 03:11:00,76.5,73.0,30.12,East,96,0.0,2.0,89,0.00,,,0.00,WUHU216DAVISVP2,2013-05-31 07:11:00,
2013-05-31 03:16:00,76.5,73.0,30.12,East,84,0.0,2.0,89,0.00,,,0.00,WUHU216DAVISVP2,2013-05-31 07:16:00,
2013-05-31 03:21:00,76.5,73.0,30.12,NE,46,0.0,3.0,89,0.00,,,0.00,WUHU216DAVISVP2,2013-05-31 07:21:00,
2013-05-31 03:26:00,76.5,73.0,30.12,West,261,0.0,3.0,89,0.00,,,0.00,WUHU216DAVISVP2,2013-05-31 07:26:00,
2013-05-31 03:31:00,76.5,73.0,30.12,ENE,65,0.0,2.0,89,0.00,,,0.00,WUHU216DAVISVP2,2013-05-31 07:31:00,
2013-05-31 03:36:00,76.5,73.0,30.12,ENE,65,0.0,2.0,89,0.00,,,0.00,WUHU216DAVISVP2,2013-05-31 07:36:00,
2013-05-31 03:41:00,76.4,72.9,30.11,ENE,69,0.0,2.0,89,0.00,,,0.00,WUHU216DAVISVP2,2013-05-31 07:41:00,
2013-05-31 03:46:00,76.4,72.9,30.11,North,351,0.0,2.0,89,0.00,,,0.00,WUHU216DAVISVP2,2013-05-31 07:46:00,
2013-05-31 03:51:00,76.4,72.9,30.10,WSW,237,0.0,2.0,89,0.00,,,0.00,WUHU216DAVISVP2,2013-05-31 07:51:00,
2013-05-31 03:56:00,76.4,72.9,30.11,SE,146,0.0,2.0,89,0.00,,,0.00,WUHU216DAVISVP2,2013-05-31 07:56:00,
2013-05-31 04:01:00,76.4,72.9,30.11,East,88,1.0,3.0,89,0.00,,,0.00,WUHU216DAVISVP2,2013-05-31 08:01:00,
2013-05-31 04:06:00,76.3,72.8,30.10,SE,130,0.0,3.0,89,0.00,,,0.00,WUHU216DAVISVP2,2013-05-31 08:06:00,
2013-05-31 04:11:00,76.3,72.8,30.11,SE,143,0.0,1.0,89,0.00,,,0.00,WUHU216DAVISVP2,2013-05-31 08:11:00,
2013-05-31 04:16:00,76.3,72.8,30.11,SSE,150,0.0,3.0,89,0.00,,,0.00,WUHU216DAVISVP2,2013-05-31 08:16:00,
2013-05-31 04:22:00,76.3,72.8,30.11,SSE,150,0.0,3.0,89,0.00,,,0.00,WUHU216DAVISVP2,2013-05-31 08:22:00,
2013-05-31 04:27:00,76.2,72.7,30.11,ESE,120,0.0,2.0,89,0.00,,,0.00,WUHU216DAVISVP2,2013-05-31 08:27:00,
2013-05-31 04:32:00,76.1,72.6,30.10,ESE,117,0.0,2.0,89,0.00,,,0.00,WUHU216DAVISVP2,2013-05-31 08:32:00,
2013-05-31 04:37:00,76.1,72.6,30.10,ESE,117,0.0,1.0,89,0.00,,,0.00,WUHU216DAVISVP2,2013-05-31 08:37:00,
2013-05-31 04:42:00,76.0,72.5,30.10,ESE,117,0.0,1.0,89,0.00,,,0.00,WUHU216DAVISVP2,2013-05-31 08:42:00,
2013-05-31 04:47:00,76.0,72.5,30.10,ESE,117,0.0,0.0,89,0.00,,,0.00,WUHU216DAVISVP2,2013-05-31 08:47:00,
2013-05-31 04:52:00,75.9,72.4,30.10,ESE,117,0.0,0.0,89,0.00,,,0.00,WUHU216DAVISVP2,2013-05-31 08:52:00,
2013-05-31 04:57:00,75.8,72.3,30.11,East,81,0.0,1.0,89,0.00,,,0.00,WUHU216DAVISVP2,2013-05-31 08:57:00,
2013-05-31 05:02:00,75.7,71.9,30.11,East,81,0.0,1.0,88,0.00,,,0.00,WUHU216DAVISVP2,2013-05-31 09:02:00,
2013-05-31 05:07:00,75.8,72.0,30.10,East,82,0.0,1.0,88,0.00,,,0.00,WUHU216DAVISVP2,2013-05-31 09:07:00,
2013-05-31 05:12:00,75.8,72.0,30.11,East,82,0.0,1.0,88,0.00,,,0.00,WUHU216DAVISVP2,2013-05-31 09:12:00,
2013-05-31 05:17:00,75.8,72.0,30.11,East,82,0.0,0.0,88,0.00,,,0.00,WUHU216DAVISVP2,2013-05-31 09:17:00,
2013-05-31 05:22:00,75.9,71.8,30.11,ESE,119,0.0,1.0,87,0.00,,,0.00,WUHU216DAVISVP2,2013-05-31 09:22:00,
2013-05-31 05:27:00,76.0,72.2,30.11,ESE,119,0.0,1.0,88,0.00,,,0.00,WUHU216DAVISVP2,2013-05-31 09:27:00,
2013-05-31 05:32:00,75.9,72.1,30.11,ESE,119,0.0,1.0,88,0.00,,,0.00,WUHU216DAVISVP2,2013-05-31 09:32:00,
2013-05-31 05:37:00,75.9,72.1,30.12,ESE,119,0.0,0.0,88,0.00,,,0.00,WUHU216DAVISVP2,2013-05-31 09:37:00,
2013-05-31 05:42:00,75.9,71.8,30.11,ESE,114,0.0,1.0,87,0.00,,,0.00,WUHU216DAVISVP2,2013-05-31 09:42:00,
2013-05-31 05:47:00,75.9,71.8,30.12,ESE,114,0.0,1.0,87,0.00,,,0.00,WUHU216DAVISVP2,2013-05-31 09:47:00,
2013-05-31 05:52:00,75.8,72.0,30.11,SSW,209,0.0,2.0,88,0.00,,,0.00,WUHU216DAVISVP2,2013-05-31 09:52:00,
2013-05-31 05:57:00,75.8,72.0,30.11,SSW,209,0.0,2.0,88,0.00,,,0.00,WUHU216DAVISVP2,2013-05-31 09:57:00,
2013-05-31 06:02:00,75.7,71.9,30.12,East,98,0.0,1.0,88,0.00,,,0.00,WUHU216DAVISVP2,2013-05-31 10:02:00,
2013-05-31 06:07:00,75.8,72.0,30.12,NE,53,0.0,1.0,88,0.00,,,0.00,WUHU216DAVISVP2,2013-05-31 10:07:00,
2013-05-31 06:12:00,75.8,72.0,30.12,ESE,110,0.0,1.0,88,0.00,,,0.00,WUHU216DAVISVP2,2013-05-31 10:12:00,
2013-05-31 06:17:00,75.8,72.0,30.12,SE,131,0.0,1.0,88,0.00,,,0.00,WUHU216DAVISVP2,2013-05-31 10:17:00,
2013-05-31 06:22:00,75.8,72.0,30.11,SE,131,0.0,1.0,88,0.00,,,0.00,WUHU216DAVISVP2,2013-05-31 10:22:00,
2013-05-31 06:27:00,75.9,72.1,30.12,East,94,0.0,1.0,88,0.00,,,0.00,WUHU216DAVISVP2,2013-05-31 10:27:00,
2013-05-31 06:32:00,76.0,72.2,30.12,ESE,109,0.0,1.0,88,0.00,,,0.00,WUHU216DAVISVP2,2013-05-31 10:32:00,
2013-05-31 06:37:00,76.1,72.3,30.12,ESE,103,0.0,1.0,88,0.00,,,0.00,WUHU216DAVISVP2,2013-05-31 10:37:00,
2013-05-31 06:42:00,76.1,72.3,30.12,ESE,103,0.0,1.0,88,0.00,,,0.00,WUHU216DAVISVP2,2013-05-31 10:42:00,
2013-05-31 06:47:00,76.1,72.3,30.12,ESE,103,0.0,1.0,88,0.00,,,0.00,WUHU216DAVISVP2,2013-05-31 10:47:00,
2013-05-31 06:52:00,76.2,72.4,30.12,ESE,103,0.0,2.0,88,0.00,,,0.00,WUHU216DAVISVP2,2013-05-31 10:52:00,
2013-05-31 06:57:00,76.2,72.4,30.12,SSE,156,0.0,3.0,88,0.00,,,0.00,WUHU216DAVISVP2,2013-05-31 10:57:00,
2013-05-31 07:02:00,76.3,72.5,30.12,ENE,67,0.0,3.0,88,0.00,,,0.00,WUHU216DAVISVP2,2013-05-31 11:02:00,
2013-05-31 07:07:00,76.4,72.3,30.12,East,84,0.0,3.0,87,0.00,,,0.00,WUHU216DAVISVP2,2013-05-31 11:07:00,
2013-05-31 07:12:00,76.5,72.4,30.12,SW,228,0.0,3.0,87,0.00,,,0.00,WUHU216DAVISVP2,2013-05-31 11:12:00,
2013-05-31 07:17:00,76.5,72.4,30.12,NE,55,0.0,1.0,87,0.00,,,0.00,WUHU216DAVISVP2,2013-05-31 11:17:00,
2013-05-31 07:22:00,76.6,72.5,30.12,NE,52,0.0,1.0,87,0.00,,,0.00,WUHU216DAVISVP2,2013-05-31 11:22:00,
2013-05-31 07:27:00,76.7,72.6,30.12,NE,52,0.0,1.0,87,0.00,,,0.00,WUHU216DAVISVP2,2013-05-31 11:27:00,
2013-05-31 07:32:00,76.8,72.7,30.13,ESE,120,0.0,5.0,87,0.00,,,0.00,WUHU216DAVISVP2,2013-05-31 11:32:00,
2013-05-31 07:37:00,76.9,72.8,30.13,East,89,0.0,5.0,87,0.00,,,0.00,WUHU216DAVISVP2,2013-05-31 11:37:00,
2013-05-31 07:42:00,77.1,73.0,30.13,SW,223,0.0,5.0,87,0.00,,,0.00,WUHU216DAVISVP2,2013-05-31 11:42:00,
2013-05-31 07:47:00,77.2,72.7,30.13,East,90,0.0,5.0,86,0.00,,,0.00,WUHU216DAVISVP2,2013-05-31 11:47:00,
2013-05-31 07:52:00,77.3,72.8,30.13,ENE,61,0.0,3.0,86,0.00,,,0.00,WUHU216DAVISVP2,2013-05-31 11:52:00,
2013-05-31 07:57:00,77.5,73.0,30.13,ENE,64,0.0,3.0,86,0.00,,,0.00,WUHU216DAVISVP2,2013-05-31 11:57:00,
2013-05-31 08:02:00,77.6,73.4,30.13,ENE,64,2.0,2.0,87,0.00,,,0.00,WUHU216DAVISVP2,2013-05-31 12:02:00,
2013-05-31 08:07:00,77.8,73.3,30.13,East,82,0.0,3.0,86,0.00,,,0.00,WUHU216DAVISVP2,2013-05-31 12:07:00,
2013-05-31 08:12:00,77.9,73.4,30.13,ENE,59,0.0,3.0,86,0.00,,,0.00,WUHU216DAVISVP2,2013-05-31 12:12:00,
2013-05-31 08:17:00,78.1,73.6,30.13,ESE,116,0.0,3.0,86,0.00,,,0.00,WUHU216DAVISVP2,2013-05-31 12:17:00,
2013-05-31 08:22:00,78.2,73.7,30.13,South,169,0.0,3.0,86,0.00,,,0.00,WUHU216DAVISVP2,2013-05-31 12:22:00,
2013-05-31 08:27:00,78.4,73.9,30.13,ENE,78,0.0,5.0,86,0.00,,,0.00,WUHU216DAVISVP2,2013-05-31 12:27:00,
2013-05-31 08:32:00,78.5,73.7,30.14,SSW,197,0.0,5.0,85,0.00,,,0.00,WUHU216DAVISVP2,2013-05-31 12:32:00,
2013-05-31 08:37:00,78.7,73.9,30.14,ENE,70,1.0,4.0,85,0.00,,,0.00,WUHU216DAVISVP2,2013-05-31 12:37:00,
2013-05-31 08:42:00,78.7,73.5,30.14,ENE,59,0.0,4.0,84,0.00,,,0.00,WUHU216DAVISVP2,2013-05-31 12:42:00,
2013-05-31 08:47:00,78.8,73.6,30.14,ENE,75,0.0,4.0,84,0.00,,,0.00,WUHU216DAVISVP2,2013-05-31 12:47:00,
2013-05-31 08:52:00,79.0,73.5,30.14,South,169,1.0,2.0,83,0.00,,,0.00,WUHU216DAVISVP2,2013-05-31 12:52:00,
2013-05-31 08:57:00,79.2,74.0,30.14,ENE,65,0.0,3.0,84,0.00,,,0.00,WUHU216DAVISVP2,2013-05-31 12:57:00,
2013-05-31 09:02:00,79.4,73.9,30.14,ENE,61,0.0,3.0,83,0.00,,,0.00,WUHU216DAVISVP2,2013-05-31 13:02:00,
2013-05-31 09:07:00,79.5,74.0,30.14,NNW,344,0.0,4.0,83,0.00,,,0.00,WUHU216DAVISVP2,2013-05-31 13:07:00,
2013-05-31 09:12:00,79.6,74.1,30.14,NNE,27,0.0,4.0,83,0.00,,,0.00,WUHU216DAVISVP2,2013-05-31 13:12:00,
2013-05-31 09:17:00,79.7,74.2,30.14,ENE,78,1.0,3.0,83,0.00,,,0.00,WUHU216DAVISVP2,2013-05-31 13:17:00,
2013-05-31 09:22:00,79.8,74.2,30.14,NNE,30,0.0,3.0,83,0.00,,,0.00,WUHU216DAVISVP2,2013-05-31 13:22:00,
2013-05-31 09:27:00,80.0,74.4,30.14,SE,134,0.0,3.0,83,0.00,,,0.00,WUHU216DAVISVP2,2013-05-31 13:27:00,
2013-05-31 09:32:00,80.0,74.4,30.14,North,5,0.0,2.0,83,0.00,,,0.00,WUHU216DAVISVP2,2013-05-31 13:32:00,
2013-05-31 09:37:00,80.2,74.6,30.14,NE,55,0.0,4.0,83,0.00,,,0.00,WUHU216DAVISVP2,2013-05-31 13:37:00,
2013-05-31 09:42:00,80.2,73.6,30.14,SSW,207,1.0,5.0,80,0.00,,,0.00,WUHU216DAVISVP2,2013-05-31 13:42:00,
2013-05-31 09:47:00,80.2,73.9,30.15,ENE,61,0.0,5.0,81,0.00,,,0.00,WUHU216DAVISVP2,2013-05-31 13:47:00,
2013-05-31 09:52:00,80.2,73.6,30.14,East,84,0.0,3.0,80,0.00,,,0.00,WUHU216DAVISVP2,2013-05-31 13:52:00,
2013-05-31 09:57:00,80.3,73.7,30.15,East,81,0.0,4.0,80,0.00,,,0.00,WUHU216DAVISVP2,2013-05-31 13:57:00,
2013-05-31 10:02:00,80.2,73.6,30.15,East,88,2.0,4.0,80,0.00,,,0.00,WUHU216DAVISVP2,2013-05-31 14:02:00,
2013-05-31 10:07:00,80.2,73.6,30.15,ESE,116,0.0,5.0,80,0.00,,,0.00,WUHU216DAVISVP2,2013-05-31 14:07:00,
2013-05-31 10:12:00,80.3,73.3,30.15,East,86,2.0,5.0,79,0.00,,,0.00,WUHU216DAVISVP2,2013-05-31 14:12:00,
2013-05-31 10:17:00,80.3,73.3,30.15,East,85,0.0,5.0,79,0.00,,,0.00,WUHU216DAVISVP2,2013-05-31 14:17:00,
2013-05-31 10:22:00,80.3,73.7,30.15,East,80,0.0,4.0,80,0.00,,,0.00,WUHU216DAVISVP2,2013-05-31 14:22:00,
2013-05-31 10:27:00,80.6,74.0,30.15,East,101,0.0,3.0,80,0.00,,,0.00,WUHU216DAVISVP2,2013-05-31 14:27:00,
2013-05-31 10:32:00,81.0,74.4,30.16,WSW,250,0.0,7.0,80,0.00,,,0.00,WUHU216DAVISVP2,2013-05-31 14:32:00,
2013-05-31 10:37:00,81.0,74.0,30.16,ENE,75,0.0,7.0,79,0.00,,,0.00,WUHU216DAVISVP2,2013-05-31 14:37:00,
2013-05-31 10:42:00,81.1,74.5,30.16,NE,48,0.0,4.0,80,0.00,,,0.00,WUHU216DAVISVP2,2013-05-31 14:42:00,
2013-05-31 10:47:00,81.2,74.6,30.16,SSW,213,0.0,4.0,80,0.00,,,0.00,WUHU216DAVISVP2,2013-05-31 14:47:00,
2013-05-31 10:52:00,81.5,74.9,30.16,North,5,0.0,3.0,80,0.00,,,0.00,WUHU216DAVISVP2,2013-05-31 14:52:00,
2013-05-31 10:57:00,81.8,74.4,30.16,ENE,62,1.0,4.0,78,0.00,,,0.00,WUHU216DAVISVP2,2013-05-31 14:57:00,
2013-05-31 11:02:00,81.6,74.2,30.16,East,94,0.0,4.0,78,0.00,,,0.00,WUHU216DAVISVP2,2013-05-31 15:02:00,
2013-05-31 11:07:00,81.5,73.8,30.16,ENE,77,0.0,4.0,77,0.00,,,0.00,WUHU216DAVISVP2,2013-05-31 15:07:00,
2013-05-31 11:12:00,81.4,74.0,30.16,ENE,76,2.0,4.0,78,0.00,,,0.00,WUHU216DAVISVP2,2013-05-31 15:12:00,
2013-05-31 11:17:00,81.6,74.6,30.16,ESE,111,0.0,3.0,79,0.00,,,0.00,WUHU216DAVISVP2,2013-05-31 15:17:00,
2013-05-31 11:22:00,81.9,74.5,30.16,South,184,0.0,2.0,78,0.00,,,0.00,WUHU216DAVISVP2,2013-05-31 15:22:00,
2013-05-31 11:27:00,82.2,74.8,30.16,East,101,0.0,5.0,78,0.00,,,0.00,WUHU216DAVISVP2,2013-05-31 15:27:00,
2013-05-31 11:32:00,82.5,74.7,30.16,WSW,248,0.0,5.0,77,0.00,,,0.00,WUHU216DAVISVP2,2013-05-31 15:32:00,
2013-05-31 11:37:00,82.1,74.3,30.17,SSE,155,0.0,3.0,77,0.00,,,0.00,WUHU216DAVISVP2,2013-05-31 15:37:00,
2013-05-31 11:42:00,81.5,74.5,30.17,East,101,0.0,3.0,79,0.00,,,0.00,WUHU216DAVISVP2,2013-05-31 15:42:00,
2013-05-31 11:47:00,81.0,74.0,30.17,East,80,0.0,5.0,79,0.00,,,0.00,WUHU216DAVISVP2,2013-05-31 15:47:00,
2013-05-31 11:52:00,81.1,73.4,30.17,NE,53,1.0,5.0,77,0.00,,,0.00,WUHU216DAVISVP2,2013-05-31 15:52:00,
2013-05-31 11:57:00,81.4,74.0,30.17,East,86,3.0,5.0,78,0.00,,,0.00,WUHU216DAVISVP2,2013-05-31 15:57:00,
2013-05-31 12:02:00,81.8,74.8,30.17,NE,46,2.0,5.0,79,0.00,,,0.00,WUHU216DAVISVP2,2013-05-31 16:02:00,
2013-05-31 12:07:00,82.5,75.1,30.16,NE,40,3.0,4.0,78,0.00,,,0.00,WUHU216DAVISVP2,2013-05-31 16:07:00,
2013-05-31 12:12:00,82.8,74.6,30.17,NNE,32,0.0,6.0,76,0.00,,,0.00,WUHU216DAVISVP2,2013-05-31 16:12:00,
2013-05-31 12:17:00,82.8,75.0,30.17,East,94,3.0,6.0,77,0.00,,,0.00,WUHU216DAVISVP2,2013-05-31 16:17:00,
2013-05-31 12:22:00,82.8,75.0,30.17,South,189,0.0,3.0,77,0.00,,,0.00,WUHU216DAVISVP2,2013-05-31 16:22:00,
2013-05-31 12:27:00,83.2,75.0,30.16,SSE,161,0.0,5.0,76,0.00,,,0.00,WUHU216DAVISVP2,2013-05-31 16:27:00,
2013-05-31 12:32:00,83.0,75.2,30.16,ENE,76,0.0,5.0,77,0.00,,,0.00,WUHU216DAVISVP2,2013-05-31 16:32:00,
2013-05-31 12:37:00,83.2,75.4,30.16,ESE,118,0.0,4.0,77,0.00,,,0.00,WUHU216DAVISVP2,2013-05-31 16:37:00,
2013-05-31 12:42:00,83.3,75.1,30.16,NE,53,0.0,5.0,76,0.00,,,0.00,WUHU216DAVISVP2,2013-05-31 16:42:00,
2013-05-31 12:47:00,83.5,75.7,30.16,NE,49,0.0,5.0,77,0.00,,,0.00,WUHU216DAVISVP2,2013-05-31 16:47:00,
2013-05-31 12:52:00,83.7,75.9,30.16,NW,310,0.0,5.0,77,0.00,,,0.00,WUHU216DAVISVP2,2013-05-31 16:52:00,
2013-05-31 12:57:00,84.1,75.9,30.16,ESE,105,0.0,5.0,76,0.00,,,0.00,WUHU216DAVISVP2,2013-05-31 16:57:00,
2013-05-31 13:02:00,84.3,75.3,30.16,ENE,59,0.0,3.0,74,0.00,,,0.00,WUHU216DAVISVP2,2013-05-31 17:02:00,
2013-05-31 13:07:00,84.3,76.1,30.16,SE,134,0.0,3.0,76,0.00,,,0.00,WUHU216DAVISVP2,2013-05-31 17:07:00,
2013-05-31 13:12:00,84.6,76.0,30.16,SE,124,0.0,3.0,75,0.00,,,0.00,WUHU216DAVISVP2,2013-05-31 17:12:00,
2013-05-31 13:17:00,84.8,76.2,30.16,East,88,0.0,3.0,75,0.00,,,0.00,WUHU216DAVISVP2,2013-05-31 17:17:00,
2013-05-31 13:22:00,85.1,76.5,30.16,ENE,63,1.0,2.0,75,0.00,,,0.00,WUHU216DAVISVP2,2013-05-31 17:22:00,
2013-05-31 13:27:00,85.2,75.8,30.16,SSE,159,0.0,5.0,73,0.00,,,0.00,WUHU216DAVISVP2,2013-05-31 17:27:00,
2013-05-31 13:32:00,85.1,75.7,30.16,NNE,32,0.0,5.0,73,0.00,,,0.00,WUHU216DAVISVP2,2013-05-31 17:32:00,
2013-05-31 13:37:00,84.9,75.5,30.16,West,272,0.0,6.0,73,0.00,,,0.00,WUHU216DAVISVP2,2013-05-31 17:37:00,
2013-05-31 13:42:00,84.6,74.8,30.16,SE,136,1.0,6.0,72,0.00,,,0.00,WUHU216DAVISVP2,2013-05-31 17:42:00,
2013-05-31 13:47:00,84.3,75.7,30.16,North,5,0.0,5.0,75,0.00,,,0.00,WUHU216DAVISVP2,2013-05-31 17:47:00,
2013-05-31 13:52:00,84.7,75.7,30.16,NE,55,3.0,4.0,74,0.00,,,0.00,WUHU216DAVISVP2,2013-05-31 17:52:00,
2013-05-31 13:57:00,84.1,74.7,30.16,East,92,4.0,6.0,73,0.00,,,0.00,WUHU216DAVISVP2,2013-05-31 17:57:00,
2013-05-31 14:02:00,83.3,75.1,30.15,SW,232,0.0,6.0,76,0.00,,,0.00,WUHU216DAVISVP2,2013-05-31 18:02:00,
2013-05-31 14:07:00,83.3,74.7,30.15,East,90,1.0,5.0,75,0.00,,,0.00,WUHU216DAVISVP2,2013-05-31 18:07:00,
2013-05-31 14:12:00,83.5,75.3,30.15,North,360,0.0,4.0,76,0.00,,,0.00,WUHU216DAVISVP2,2013-05-31 18:12:00,
2013-05-31 14:17:00,83.9,75.3,30.15,NE,34,0.0,4.0,75,0.00,,,0.00,WUHU216DAVISVP2,2013-05-31 18:17:00,
2013-05-31 14:22:00,83.6,75.4,30.15,NE,48,2.0,4.0,76,0.00,,,0.00,WUHU216DAVISVP2,2013-05-31 18:22:00,
2013-05-31 14:27:00,83.8,75.6,30.15,NNE,30,0.0,4.0,76,0.00,,,0.00,WUHU216DAVISVP2,2013-05-31 18:27:00,
2013-05-31 14:32:00,83.7,74.7,30.15,NE,54,3.0,4.0,74,0.00,,,0.00,WUHU216DAVISVP2,2013-05-31 18:32:00,
2013-05-31 14:37:00,83.2,75.4,30.15,ENE,67,1.0,4.0,77,0.00,,,0.00,WUHU216DAVISVP2,2013-05-31 18:37:00,
2013-05-31 14:42:00,83.6,75.4,30.15,NE,42,2.0,4.0,76,0.00,,,0.00,WUHU216DAVISVP2,2013-05-31 18:42:00,
2013-05-31 14:47:00,84.0,75.4,30.14,East,86,0.0,4.0,75,0.00,,,0.00,WUHU216DAVISVP2,2013-05-31 18:47:00,
2013-05-31 14:52:00,84.1,75.9,30.15,NW,315,0.0,4.0,76,0.00,,,0.00,WUHU216DAVISVP2,2013-05-31 18:52:00,
2013-05-31 14:57:00,84.2,76.0,30.14,South,181,0.0,3.0,76,0.00,,,0.00,WUHU216DAVISVP2,2013-05-31 18:57:00,
2013-05-31 15:02:00,84.4,75.8,30.14,NNE,19,0.0,3.0,75,0.00,,,0.00,WUHU216DAVISVP2,2013-05-31 19:02:00,
2013-05-31 15:07:00,84.3,75.7,30.14,ENE,78,0.0,6.0,75,0.00,,,0.00,WUHU216DAVISVP2,2013-05-31 19:07:00,
2013-05-31 15:12:00,84.2,75.6,30.14,ENE,74,0.0,6.0,75,0.00,,,0.00,WUHU216DAVISVP2,2013-05-31 19:12:00,
2013-05-31 15:17:00,84.1,75.5,30.14,SE,134,2.0,4.0,75,0.00,,,0.00,WUHU216DAVISVP2,2013-05-31 19:17:00,
2013-05-31 15:22:00,84.1,75.5,30.14,ENE,69,0.0,4.0,75,0.00,,,0.00,WUHU216DAVISVP2,2013-05-31 19:22:00,
2013-05-31 15:27:00,83.9,75.7,30.14,NE,34,2.0,5.0,76,0.00,,,0.00,WUHU216DAVISVP2,2013-05-31 19:27:00,
2013-05-31 15:32:00,83.7,75.1,30.13,ENE,65,0.0,5.0,75,0.00,,,0.00,WUHU216DAVISVP2,2013-05-31 19:32:00,
2013-05-31 15:37:00,84.0,75.8,30.13,North,10,0.0,4.0,76,0.00,,,0.00,WUHU216DAVISVP2,2013-05-31 19:37:00,
2013-05-31 15:42:00,84.4,75.8,30.13,ENE,64,1.0,3.0,75,0.00,,,0.00,WUHU216DAVISVP2,2013-05-31 19:42:00,
2013-05-31 15:47:00,84.3,75.7,30.13,NE,44,2.0,5.0,75,0.00,,,0.00,WUHU216DAVISVP2,2013-05-31 19:47:00,
2013-05-31 15:52:00,84.0,75.4,30.13,NE,54,1.0,5.0,75,0.00,,,0.00,WUHU216DAVISVP2,2013-05-31 19:52:00,
2013-05-31 15:57:00,83.7,75.5,30.13,South,186,0.0,4.0,76,0.00,,,0.00,WUHU216DAVISVP2,2013-05-31 19:57:00,
2013-05-31 16:02:00,84.1,76.3,30.13,ENE,77,0.0,3.0,77,0.00,,,0.00,WUHU216DAVISVP2,2013-05-31 20:02:00,
2013-05-31 16:07:00,84.2,75.6,30.12,ENE,78,1.0,4.0,75,0.00,,,0.00,WUHU216DAVISVP2,2013-05-31 20:07:00,
2013-05-31 16:12:00,83.1,74.9,30.12,NE,43,1.0,4.0,76,0.00,,,0.00,WUHU216DAVISVP2,2013-05-31 20:12:00,
2013-05-31 16:17:00,82.8,75.4,30.12,ENE,57,1.0,3.0,78,0.00,,,0.00,WUHU216DAVISVP2,2013-05-31 20:17:00,
2013-05-31 16:22:00,82.7,75.3,30.12,ENE,71,0.0,4.0,78,0.00,,,0.00,WUHU216DAVISVP2,2013-05-31 20:22:00,
2013-05-31 16:27:00,82.8,75.8,30.11,NE,36,1.0,4.0,79,0.00,,,0.00,WUHU216DAVISVP2,2013-05-31 20:27:00,
2013-05-31 16:32:00,82.9,75.9,30.11,ENE,74,0.0,3.0,79,0.00,,,0.00,WUHU216DAVISVP2,2013-05-31 20:32:00,
2013-05-31 16:37:00,83.0,75.6,30.12,NE,46,3.0,4.0,78,0.00,,,0.00,WUHU216DAVISVP2,2013-05-31 20:37:00,
2013-05-31 16:42:00,83.0,75.6,30.12,ENE,65,2.0,4.0,78,0.00,,,0.00,WUHU216DAVISVP2,2013-05-31 20:42:00,
2013-05-31 16:47:00,82.7,74.9,30.11,NE,38,0.0,4.0,77,0.00,,,0.00,WUHU216DAVISVP2,2013-05-31 20:47:00,
2013-05-31 16:52:00,82.5,74.7,30.11,East,94,0.0,4.0,77,0.00,,,0.00,WUHU216DAVISVP2,2013-05-31 20:52:00,
2013-05-31 16:57:00,82.4,75.4,30.11,SSE,163,0.0,4.0,79,0.00,,,0.00,WUHU216DAVISVP2,2013-05-31 20:57:00,
2013-05-31 17:02:00,82.2,74.4,30.11,East,82,2.0,4.0,77,0.00,,,0.00,WUHU216DAVISVP2,2013-05-31 21:02:00,
2013-05-31 17:07:00,82.1,75.1,30.11,NE,42,0.0,5.0,79,0.00,,,0.00,WUHU216DAVISVP2,2013-05-31 21:07:00,
2013-05-31 17:12:00,82.4,75.0,30.11,SSW,202,0.0,5.0,78,0.00,,,0.00,WUHU216DAVISVP2,2013-05-31 21:12:00,
2013-05-31 17:17:00,82.8,75.0,30.11,ENE,67,0.0,3.0,77,0.00,,,0.00,WUHU216DAVISVP2,2013-05-31 21:17:00,
2013-05-31 17:22:00,82.8,75.0,30.11,ENE,76,0.0,1.0,77,0.00,,,0.00,WUHU216DAVISVP2,2013-05-31 21:22:00,
2013-05-31 17:27:00,82.7,75.3,30.11,ESE,113,1.0,3.0,78,0.00,,,0.00,WUHU216DAVISVP2,2013-05-31 21:27:00,
2013-05-31 17:32:00,82.7,75.3,30.10,ESE,103,1.0,3.0,78,0.00,,,0.00,WUHU216DAVISVP2,2013-05-31 21:32:00,
2013-05-31 17:37:00,82.3,74.9,30.10,East,86,0.0,4.0,78,0.00,,,0.00,WUHU216DAVISVP2,2013-05-31 21:37:00,
2013-05-31 17:42:00,81.8,74.4,30.10,East,80,2.0,5.0,78,0.00,,,0.00,WUHU216DAVISVP2,2013-05-31 21:42:00,
2013-05-31 17:47:00,81.2,74.2,30.10,East,80,0.0,5.0,79,0.00,,,0.00,WUHU216DAVISVP2,2013-05-31 21:47:00,
2013-05-31 17:52:00,81.0,74.4,30.10,East,93,0.0,5.0,80,0.00,,,0.00,WUHU216DAVISVP2,2013-05-31 21:52:00,
2013-05-31 17:57:00,80.9,74.3,30.10,NNE,24,0.0,3.0,80,0.00,,,0.00,WUHU216DAVISVP2,2013-05-31 21:57:00,
2013-05-31 18:02:00,81.1,74.5,30.10,East,81,0.0,3.0,80,0.00,,,0.00,WUHU216DAVISVP2,2013-05-31 22:02:00,
2013-05-31 18:07:00,81.4,74.8,30.10,East,84,0.0,6.0,80,0.00,,,0.00,WUHU216DAVISVP2,2013-05-31 22:07:00,
2013-05-31 18:12:00,81.4,74.4,30.10,ENE,67,0.0,6.0,79,0.00,,,0.00,WUHU216DAVISVP2,2013-05-31 22:12:00,
2013-05-31 18:17:00,81.1,74.5,30.10,East,84,0.0,5.0,80,0.00,,,0.00,WUHU216DAVISVP2,2013-05-31 22:17:00,
2013-05-31 18:22:00,80.9,74.6,30.10,East,88,0.0,3.0,81,0.00,,,0.00,WUHU216DAVISVP2,2013-05-31 22:22:00,
2013-05-31 18:27:00,80.8,74.9,30.10,East,80,0.0,3.0,82,0.00,,,0.00,WUHU216DAVISVP2,2013-05-31 22:27:00,
2013-05-31 18:32:00,80.8,74.9,30.10,East,84,0.0,4.0,82,0.00,,,0.00,WUHU216DAVISVP2,2013-05-31 22:32:00,
2013-05-31 18:37:00,80.8,74.9,30.10,NE,53,0.0,4.0,82,0.00,,,0.00,WUHU216DAVISVP2,2013-05-31 22:37:00,
2013-05-31 18:42:00,80.9,75.0,30.10,NNW,344,0.0,4.0,82,0.00,,,0.00,WUHU216DAVISVP2,2013-05-31 22:42:00,
2013-05-31 18:47:00,81.0,75.1,30.10,NNE,21,0.0,4.0,82,0.00,,,0.00,WUHU216DAVISVP2,2013-05-31 22:47:00,
2013-05-31 18:52:00,80.8,74.9,30.10,NNE,32,0.0,3.0,82,0.00,,,0.00,WUHU216DAVISVP2,2013-05-31 22:52:00,
2013-05-31 18:57:00,80.4,74.5,30.10,ESE,104,0.0,4.0,82,0.00,,,0.00,WUHU216DAVISVP2,2013-05-31 22:57:00,
2013-05-31 19:02:00,79.6,74.4,30.10,ESE,104,0.0,4.0,84,0.00,,,0.00,WUHU216DAVISVP2,2013-05-31 23:02:00,
2013-05-31 19:07:00,79.1,74.6,30.10,ESE,104,0.0,1.0,86,0.00,,,0.00,WUHU216DAVISVP2,2013-05-31 23:07:00,
2013-05-31 19:12:00,78.3,74.1,30.10,SW,224,0.0,2.0,87,0.00,,,0.00,WUHU216DAVISVP2,2013-05-31 23:12:00,
2013-05-31 19:17:00,77.7,73.5,30.11,ESE,105,0.0,2.0,87,0.00,,,0.00,WUHU216DAVISVP2,2013-05-31 23:17:00,
2013-05-31 19:22:00,77.3,73.5,30.11,ESE,105,0.0,1.0,88,0.00,,,0.00,WUHU216DAVISVP2,2013-05-31 23:22:00,
2013-05-31 19:27:00,77.2,73.7,30.10,ESE,105,0.0,1.0,89,0.00,,,0.00,WUHU216DAVISVP2,2013-05-31 23:27:00,
2013-05-31 19:32:00,77.1,73.6,30.11,ESE,103,0.0,1.0,89,0.00,,,0.00,WUHU216DAVISVP2,2013-05-31 23:32:00,
2013-05-31 19:37:00,77.1,73.9,30.11,ESE,103,0.0,1.0,90,0.00,,,0.00,WUHU216DAVISVP2,2013-05-31 23:37:00,
2013-05-31 19:42:00,77.1,73.6,30.11,South,171,0.0,1.0,89,0.00,,,0.00,WUHU216DAVISVP2,2013-05-31 23:42:00,
2013-05-31 19:47:00,77.1,73.6,30.11,SSE,168,0.0,1.0,89,0.00,,,0.00,WUHU216DAVISVP2,2013-05-31 23:47:00,
2013-05-31 19:52:00,77.1,73.6,30.11,SSE,168,0.0,1.0,89,0.00,,,0.00,WUHU216DAVISVP2,2013-05-31 23:52:00,
2013-05-31 19:57:00,77.1,73.6,30.11,SSE,168,0.0,1.0,89,0.00,,,0.00,WUHU216DAVISVP2,2013-05-31 23:57:00,
2013-05-31 20:02:00,77.2,73.7,30.11,SSE,168,0.0,1.0,89,0.00,,,0.00,WUHU216DAVISVP2,2013-06-01 00:02:00,
2013-05-31 20:07:00,77.2,73.7,30.11,SSE,168,0.0,1.0,89,0.00,,,0.00,WUHU216DAVISVP2,2013-06-01 00:07:00,
2013-05-31 20:12:00,77.3,73.8,30.11,SSE,166,0.0,1.0,89,0.00,,,0.00,WUHU216DAVISVP2,2013-06-01 00:12:00,
2013-05-31 20:17:00,77.3,73.8,30.11,South,182,0.0,3.0,89,0.00,,,0.00,WUHU216DAVISVP2,2013-06-01 00:17:00,
2013-05-31 20:22:00,77.2,73.7,30.11,SE,137,0.0,3.0,89,0.00,,,0.00,WUHU216DAVISVP2,2013-06-01 00:22:00,
2013-05-31 20:27:00,77.1,73.3,30.11,SE,134,0.0,1.0,88,0.00,,,0.00,WUHU216DAVISVP2,2013-06-01 00:27:00,
2013-05-31 20:32:00,77.1,73.3,30.11,SE,134,0.0,1.0,88,0.00,,,0.00,WUHU216DAVISVP2,2013-06-01 00:32:00,
2013-05-31 20:37:00,77.1,73.3,30.11,SE,134,0.0,1.0,88,0.00,,,0.00,WUHU216DAVISVP2,2013-06-01 00:37:00,
2013-05-31 20:42:00,77.2,73.4,30.11,SE,134,0.0,1.0,88,0.00,,,0.00,WUHU216DAVISVP2,2013-06-01 00:42:00,
2013-05-31 20:47:00,77.2,73.4,30.11,South,175,0.0,3.0,88,0.00,,,0.00,WUHU216DAVISVP2,2013-06-01 00:47:00,
2013-05-31 20:52:00,77.2,73.7,30.11,South,175,1.0,3.0,89,0.00,,,0.00,WUHU216DAVISVP2,2013-06-01 00:52:00,
2013-05-31 20:57:00,77.3,73.8,30.11,South,175,0.0,1.0,89,0.00,,,0.00,WUHU216DAVISVP2,2013-06-01 00:57:00,
2013-05-31 21:02:00,77.4,73.9,30.11,South,175,0.0,1.0,89,0.00,,,0.00,WUHU216DAVISVP2,2013-06-01 01:02:00,
2013-05-31 21:07:00,77.4,73.9,30.11,ESE,114,0.0,1.0,89,0.00,,,0.00,WUHU216DAVISVP2,2013-06-01 01:07:00,
2013-05-31 21:12:00,77.3,73.8,30.11,ESE,115,0.0,1.0,89,0.00,,,0.00,WUHU216DAVISVP2,2013-06-01 01:12:00,
2013-05-31 21:17:00,77.3,73.8,30.11,ESE,102,0.0,1.0,89,0.00,,,0.00,WUHU216DAVISVP2,2013-06-01 01:17:00,
2013-05-31 21:22:00,77.2,73.7,30.11,ESE,102,0.0,1.0,89,0.00,,,0.00,WUHU216DAVISVP2,2013-06-01 01:22:00,
2013-05-31 21:27:00,77.1,73.6,30.12,ESE,102,0.0,0.0,89,0.00,,,0.00,WUHU216DAVISVP2,2013-06-01 01:27:00,
2013-05-31 21:32:00,77.1,73.6,30.12,SSW,205,0.0,1.0,89,0.00,,,0.00,WUHU216DAVISVP2,2013-06-01 01:32:00,
2013-05-31 21:37:00,77.1,73.6,30.11,SSW,205,0.0,1.0,89,0.00,,,0.00,WUHU216DAVISVP2,2013-06-01 01:37:00,
2013-05-31 21:42:00,77.1,73.6,30.12,WSW,241,0.0,3.0,89,0.00,,,0.00,WUHU216DAVISVP2,2013-06-01 01:42:00,
2013-05-31 21:47:00,77.1,73.6,30.12,East,80,0.0,3.0,89,0.00,,,0.00,WUHU216DAVISVP2,2013-06-01 01:47:00,
2013-05-31 21:52:00,77.1,73.6,30.12,East,80,0.0,1.0,89,0.00,,,0.00,WUHU216DAVISVP2,2013-06-01 01:52:00,
2013-05-31 21:57:00,77.1,73.6,30.12,East,80,0.0,1.0,89,0.00,,,0.00,WUHU216DAVISVP2,2013-06-01 01:57:00,
2013-05-31 22:02:00,77.1,73.6,30.12,East,80,0.0,0.0,89,0.00,,,0.00,WUHU216DAVISVP2,2013-06-01 02:02:00,
2013-05-31 22:07:00,77.1,73.3,30.12,East,82,0.0,2.0,88,0.00,,,0.00,WUHU216DAVISVP2,2013-06-01 02:07:00,
2013-05-31 22:12:00,77.1,73.6,30.12,ENE,69,0.0,2.0,89,0.00,,,0.00,WUHU216DAVISVP2,2013-06-01 02:12:00,
2013-05-31 22:17:00,77.1,73.6,30.12,ENE,69,0.0,1.0,89,0.00,,,0.00,WUHU216DAVISVP2,2013-06-01 02:17:00,
2013-05-31 22:22:00,77.2,73.7,30.13,ENE,69,0.0,0.0,89,0.00,,,0.00,WUHU216DAVISVP2,2013-06-01 02:22:00,
2013-05-31 22:27:00,77.2,73.7,30.12,ENE,69,0.0,0.0,89,0.00,,,0.00,WUHU216DAVISVP2,2013-06-01 02:27:00,
2013-05-31 22:32:00,77.2,73.7,30.12,ENE,72,0.0,1.0,89,0.00,,,0.00,WUHU216DAVISVP2,2013-06-01 02:32:00,
2013-05-31 22:37:00,77.2,73.7,30.12,ENE,72,0.0,1.0,89,0.00,,,0.00,WUHU216DAVISVP2,2013-06-01 02:37:00,
2013-05-31 22:42:00,77.1,73.3,30.13,ENE,72,0.0,1.0,88,0.00,,,0.00,WUHU216DAVISVP2,2013-06-01 02:42:00,
2013-05-31 22:47:00,77.1,73.3,30.13,ENE,72,0.0,1.0,88,0.00,,,0.00,WUHU216DAVISVP2,2013-06-01 02:47:00,
2013-05-31 22:52:00,77.1,73.3,30.13,NE,42,0.0,1.0,88,0.00,,,0.00,WUHU216DAVISVP2,2013-06-01 02:52:00,
2013-05-31 22:57:00,77.1,73.3,30.13,East,96,0.0,3.0,88,0.00,,,0.00,WUHU216DAVISVP2,2013-06-01 02:57:00,
2013-05-31 23:02:00,77.2,73.4,30.13,SE,132,0.0,3.0,88,0.00,,,0.00,WUHU216DAVISVP2,2013-06-01 03:02:00,
2013-05-31 23:07:00,77.2,73.7,30.12,SE,131,0.0,3.0,89,0.00,,,0.00,WUHU216DAVISVP2,2013-06-01 03:07:00,
2013-05-31 23:12:00,77.2,73.4,30.12,ENE,69,0.0,1.0,88,0.00,,,0.00,WUHU216DAVISVP2,2013-06-01 03:12:00,
2013-05-31 23:17:00,77.2,73.4,30.12,SSW,209,0.0,1.0,88,0.00,,,0.00,WUHU216DAVISVP2,2013-06-01 03:17:00,
2013-05-31 23:22:00,77.2,73.4,30.12,SE,132,0.0,1.0,88,0.00,,,0.00,WUHU216DAVISVP2,2013-06-01 03:22:00,
2013-05-31 23:26:00,77.2,73.4,30.12,ESE,122,0.0,1.0,88,0.00,,,0.00,WUHU216DAVISVP2,2013-06-01 03:26:00,
2013-05-31 23:31:00,77.1,73.3,30.12,SE,134,0.0,3.0,88,0.00,,,0.00,WUHU216DAVISVP2,2013-06-01 03:31:00,
2013-05-31 23:36:00,77.0,73.2,30.12,ESE,109,0.0,3.0,88,0.00,,,0.00,WUHU216DAVISVP2,2013-06-01 03:36:00,
2013-05-31 23:41:00,77.1,73.3,30.12,East,85,0.0,2.0,88,0.00,,,0.00,WUHU216DAVISVP2,2013-06-01 03:41:00,
2013-05-31 23:46:00,77.1,73.3,30.12,East,93,0.0,1.0,88,0.00,,,0.00,WUHU216DAVISVP2,2013-06-01 03:46:00,
2013-05-31 23:51:00,77.2,73.4,30.12,East,87,0.0,2.0,88,0.00,,,0.00,WUHU216DAVISVP2,2013-06-01 03:51:00,
2013-05-31 23:56:00,77.3,73.5,30.11,East,87,0.0,2.0,88,0.00,,,0.00,WUHU216DAVISVP2,2013-06-01 03:56:00,